createdAt,value
2018-10-17T00:00:31.510Z,13.70
2018-10-17T00:02:59.278Z,13.77
2018-10-17T00:05:26.941Z,12.63
2018-10-17T00:07:54.662Z,12.40
2018-10-17T00:10:22.358Z,11.97
2018-10-17T00:12:50.096Z,11.27
2018-10-17T00:15:17.808Z,11.93
2018-10-17T00:17:45.555Z,10.90
2018-10-17T00:20:13.330Z,12.13
2018-10-17T00:22:41.058Z,11.93
2018-10-17T00:25:08.835Z,11.27
2018-10-17T00:27:36.545Z,12.17
2018-10-17T00:30:05.979Z,12.00
2018-10-17T00:32:33.718Z,11.13
2018-10-17T00:35:01.364Z,11.27
2018-10-17T00:37:29.024Z,12.57
2018-10-17T00:39:56.705Z,13.03
2018-10-17T00:42:24.433Z,11.50
2018-10-17T00:44:52.144Z,12.83
2018-10-17T00:47:19.796Z,12.63
2018-10-17T00:49:47.508Z,12.27
2018-10-17T00:52:15.208Z,12.50
2018-10-17T00:54:42.910Z,12.00
2018-10-17T00:57:10.591Z,11.67
2018-10-17T00:59:38.255Z,12.97
2018-10-17T01:02:06.018Z,12.67
2018-10-17T01:04:33.732Z,11.27
2018-10-17T01:07:01.438Z,12.70
2018-10-17T01:09:29.180Z,11.37
2018-10-17T01:11:56.750Z,12.40
2018-10-17T01:14:24.452Z,12.20
2018-10-17T01:16:53.876Z,12.03
2018-10-17T01:19:21.600Z,11.70
2018-10-17T01:21:49.316Z,11.20
2018-10-17T01:24:17.013Z,12.13
2018-10-17T01:26:44.695Z,10.47
2018-10-17T01:29:12.485Z,11.30
2018-10-17T01:31:40.110Z,10.83
2018-10-17T01:34:07.828Z,10.67
2018-10-17T01:36:35.512Z,9.70
2018-10-17T01:39:04.213Z,11.07
2018-10-17T01:41:31.893Z,9.90
2018-10-17T01:43:59.601Z,11.60
2018-10-17T01:46:27.321Z,10.63
2018-10-17T01:48:55.391Z,10.80
2018-10-17T01:51:23.106Z,9.97
2018-10-17T01:53:51.681Z,9.97
2018-10-17T01:56:19.504Z,10.30
2018-10-17T01:58:47.577Z,10.30
2018-10-17T02:01:15.306Z,11.30
2018-10-17T02:03:42.995Z,10.13
2018-10-17T02:06:10.657Z,10.73
2018-10-17T02:08:38.410Z,12.13
2018-10-17T02:11:06.153Z,11.90
2018-10-17T02:13:33.831Z,11.77
2018-10-17T02:16:01.579Z,10.73
2018-10-17T02:18:29.293Z,12.30
2018-10-17T02:20:57.010Z,11.43
2018-10-17T02:23:24.657Z,11.10
2018-10-17T02:25:52.268Z,10.37
2018-10-17T02:28:19.973Z,10.77
2018-10-17T02:30:47.697Z,11.33
2018-10-17T02:33:15.395Z,10.73
2018-10-17T02:35:43.092Z,10.83
2018-10-17T02:38:10.810Z,11.20
2018-10-17T02:40:38.512Z,11.97
2018-10-17T02:43:06.272Z,11.77
2018-10-17T02:45:33.917Z,11.03
2018-10-17T02:48:01.714Z,11.53
2018-10-17T02:50:29.415Z,11.00
2018-10-17T02:52:57.146Z,12.33
2018-10-17T02:55:24.938Z,11.30
2018-10-17T02:57:52.687Z,12.17
2018-10-17T03:00:20.345Z,10.93
2018-10-17T03:02:48.049Z,11.20
2018-10-17T03:05:15.788Z,10.73
2018-10-17T03:07:43.468Z,10.47
2018-10-17T03:10:11.173Z,10.47
2018-10-17T03:12:38.956Z,10.43
2018-10-17T03:15:07.434Z,10.93
2018-10-17T03:17:35.260Z,10.87
2018-10-17T03:20:03.069Z,11.00
2018-10-17T03:22:30.805Z,11.13
2018-10-17T03:24:58.472Z,10.00
2018-10-17T03:27:26.239Z,9.23
2018-10-17T03:29:53.931Z,9.33
2018-10-17T03:32:21.744Z,10.63
2018-10-17T03:34:49.364Z,9.83
2018-10-17T03:37:17.176Z,10.47
2018-10-17T03:39:44.806Z,11.13
2018-10-17T03:42:12.541Z,11.00
2018-10-17T03:44:40.210Z,10.07
2018-10-17T03:47:07.948Z,11.63
2018-10-17T03:49:35.700Z,10.20
2018-10-17T03:52:03.782Z,10.57
2018-10-17T03:54:31.482Z,10.90
2018-10-17T03:56:59.175Z,10.33
2018-10-17T03:59:26.995Z,10.90
2018-10-17T04:01:54.627Z,11.17
2018-10-17T04:04:22.357Z,10.73
2018-10-17T04:06:50.072Z,9.93
2018-10-17T04:09:17.794Z,10.90
2018-10-17T04:11:45.485Z,9.90
2018-10-17T04:14:13.188Z,11.07
2018-10-17T04:16:40.857Z,10.37
2018-10-17T04:19:08.649Z,10.57
2018-10-17T04:21:36.306Z,10.83
2018-10-17T04:24:04.110Z,10.80
2018-10-17T04:26:31.848Z,10.93
2018-10-17T04:28:59.586Z,11.57
2018-10-17T04:31:27.375Z,11.40
2018-10-17T04:33:55.074Z,11.77
2018-10-17T04:36:22.907Z,11.67
2018-10-17T04:38:50.569Z,12.23
2018-10-17T04:41:18.357Z,11.90
2018-10-17T04:43:46.029Z,12.17
2018-10-17T04:46:13.819Z,13.77
2018-10-17T04:48:41.588Z,11.10
2018-10-17T04:51:10.595Z,12.87
2018-10-17T04:53:38.281Z,11.70
2018-10-17T04:56:05.999Z,12.17
2018-10-17T04:58:33.698Z,11.60
2018-10-17T05:01:01.465Z,12.10
2018-10-17T05:03:29.147Z,12.60
2018-10-17T05:05:57.172Z,12.50
2018-10-17T05:08:24.941Z,11.70
2018-10-17T05:10:52.651Z,11.70
2018-10-17T05:13:20.443Z,12.10
2018-10-17T05:15:48.178Z,12.33
2018-10-17T05:18:15.948Z,12.40
2018-10-17T05:20:43.660Z,11.87
2018-10-17T05:23:11.451Z,12.27
2018-10-17T05:25:39.150Z,11.10
2018-10-17T05:28:07.220Z,11.17
2018-10-17T05:30:35.306Z,11.53
2018-10-17T05:33:03.047Z,12.13
2018-10-17T05:35:30.817Z,13.20
2018-10-17T05:37:58.531Z,11.93
2018-10-17T05:40:26.293Z,12.57
2018-10-17T05:42:53.990Z,13.57
2018-10-17T05:45:21.667Z,12.93
2018-10-17T05:47:49.361Z,12.23
2018-10-17T05:50:17.057Z,14.20
2018-10-17T05:52:44.716Z,12.53
2018-10-17T05:55:12.504Z,11.23
2018-10-17T05:57:40.130Z,11.73
2018-10-17T06:00:08.217Z,13.07
2018-10-17T06:02:36.935Z,11.57
2018-10-17T06:05:05.624Z,13.07
2018-10-17T06:07:33.276Z,12.60
2018-10-17T06:10:01.035Z,12.47
2018-10-17T06:12:28.785Z,12.53
2018-10-17T06:14:56.494Z,13.73
2018-10-17T06:17:24.215Z,13.07
2018-10-17T06:19:51.962Z,15.00
2018-10-17T06:22:19.694Z,13.50
2018-10-17T06:24:47.409Z,13.53
2018-10-17T06:27:15.094Z,14.17
2018-10-17T06:29:42.695Z,13.13
2018-10-17T06:32:10.443Z,13.37
2018-10-17T06:34:38.290Z,12.97
2018-10-17T06:37:06.465Z,12.60
2018-10-17T06:39:34.224Z,13.87
2018-10-17T06:42:02.022Z,13.13
2018-10-17T06:44:29.774Z,13.93
2018-10-17T06:46:57.539Z,14.33
2018-10-17T06:49:25.275Z,14.87
2018-10-17T06:51:53.040Z,13.50
2018-10-17T06:54:20.798Z,13.90
2018-10-17T06:56:48.456Z,14.37
2018-10-17T06:59:16.223Z,13.63
2018-10-17T07:01:44.343Z,14.70
2018-10-17T07:04:12.488Z,13.97
2018-10-17T07:06:40.597Z,13.63
2018-10-17T07:09:09.569Z,13.90
2018-10-17T07:11:37.970Z,14.10
2018-10-17T07:14:06.095Z,13.50
2018-10-17T07:16:34.295Z,13.90
2018-10-17T07:19:04.220Z,13.77
2018-10-17T07:21:32.340Z,14.63
2018-10-17T07:24:00.332Z,13.67
2018-10-17T07:26:28.554Z,14.57
2018-10-17T07:28:56.739Z,12.53
2018-10-17T07:31:24.855Z,13.30
2018-10-17T07:33:52.762Z,13.10
2018-10-17T07:36:20.790Z,13.30
2018-10-17T07:38:48.573Z,13.00
2018-10-17T07:41:16.675Z,12.17
2018-10-17T07:43:44.638Z,13.20
2018-10-17T07:46:12.745Z,12.97
2018-10-17T07:48:40.764Z,12.40
2018-10-17T07:51:08.526Z,12.23
2018-10-17T07:53:36.345Z,11.63
2018-10-17T07:56:04.210Z,10.93
2018-10-17T07:58:32.265Z,11.43
2018-10-17T08:01:02.585Z,11.27
2018-10-17T08:03:30.333Z,11.13
2018-10-17T08:05:58.030Z,11.50
2018-10-17T08:08:25.763Z,12.03
2018-10-17T08:10:53.461Z,11.50
2018-10-17T08:13:21.154Z,11.07
2018-10-17T08:15:48.806Z,10.93
2018-10-17T08:18:16.924Z,10.53
2018-10-17T08:20:44.669Z,10.13
2018-10-17T08:23:12.404Z,10.80
2018-10-17T08:25:40.117Z,11.07
2018-10-17T08:28:07.822Z,11.13
2018-10-17T08:30:35.483Z,10.80
2018-10-17T08:33:03.190Z,10.93
2018-10-17T08:35:30.983Z,10.53
2018-10-17T08:37:58.564Z,10.50
2018-10-17T08:40:26.266Z,10.53
2018-10-17T08:42:53.960Z,10.77
2018-10-17T08:45:21.976Z,11.30
2018-10-17T08:47:49.681Z,10.00
2018-10-17T08:50:17.511Z,9.73
2018-10-17T08:52:45.220Z,10.33
2018-10-17T08:55:12.891Z,10.03
2018-10-17T08:57:40.626Z,10.77
2018-10-17T09:00:08.524Z,10.30
2018-10-17T09:02:36.260Z,11.10
2018-10-17T09:05:04.117Z,10.80
2018-10-17T09:07:31.891Z,10.23
2018-10-17T09:09:59.760Z,10.30
2018-10-17T09:12:27.775Z,10.72
2018-10-17T09:14:55.508Z,10.45
2018-10-17T09:17:25.080Z,10.85
2018-10-17T09:19:53.687Z,10.85
2018-10-17T09:22:21.513Z,10.38
2018-10-17T09:24:49.010Z,10.20
2018-10-17T09:27:16.769Z,10.20
2018-10-17T09:29:46.428Z,11.15
2018-10-17T09:32:14.138Z,12.13
2018-10-17T09:34:41.825Z,11.50
2018-10-17T09:37:09.497Z,11.38
2018-10-17T09:39:37.218Z,11.10
2018-10-17T09:42:04.967Z,10.90
2018-10-17T09:44:32.660Z,11.60
2018-10-17T09:47:00.348Z,12.10
2018-10-17T09:49:28.033Z,12.28
2018-10-17T09:51:55.768Z,12.23
2018-10-17T09:54:23.545Z,12.63
2018-10-17T09:56:51.241Z,13.53
2018-10-17T09:59:18.935Z,13.00
2018-10-17T10:01:50.090Z,13.10
2018-10-17T10:04:18.089Z,13.95
2018-10-17T10:06:45.989Z,13.13
2018-10-17T10:09:13.656Z,12.37
2018-10-17T10:11:41.386Z,12.90
2018-10-17T10:14:09.166Z,12.37
2018-10-17T10:16:36.941Z,12.95
2018-10-17T10:19:05.417Z,13.35
2018-10-17T10:21:33.119Z,13.15
2018-10-17T10:24:01.209Z,13.62
2018-10-17T10:26:29.099Z,13.25
2018-10-17T10:28:56.781Z,13.35
2018-10-17T10:31:24.695Z,13.18
2018-10-17T10:33:52.502Z,13.83
2018-10-17T10:36:20.208Z,12.78
2018-10-17T10:38:47.953Z,13.68
2018-10-17T10:41:15.755Z,13.88
2018-10-17T10:43:43.654Z,11.95
2018-10-17T10:46:11.396Z,14.13
2018-10-17T10:48:39.074Z,12.35
2018-10-17T10:51:07.356Z,13.80
2018-10-17T10:53:35.103Z,12.93
2018-10-17T10:56:03.123Z,12.33
2018-10-17T10:58:30.946Z,14.03
2018-10-17T11:00:59.497Z,12.35
2018-10-17T11:03:27.193Z,13.38
2018-10-17T11:05:54.979Z,14.23
2018-10-17T11:08:23.150Z,14.68
2018-10-17T11:10:52.081Z,16.87
2018-10-17T11:13:19.876Z,14.98
2018-10-17T11:15:47.549Z,16.12
2018-10-17T11:18:15.179Z,16.05
2018-10-17T11:20:42.965Z,14.78
2018-10-17T11:23:11.279Z,16.25
2018-10-17T11:25:38.938Z,17.20
2018-10-17T11:28:06.584Z,18.77
2018-10-17T11:30:34.554Z,17.60
2018-10-17T11:33:02.335Z,17.82
2018-10-17T11:35:30.038Z,16.65
2018-10-17T11:37:57.814Z,17.77
2018-10-17T11:40:25.634Z,19.12
2018-10-17T11:42:53.244Z,19.02
2018-10-17T11:45:20.961Z,18.95
2018-10-17T11:47:48.816Z,17.27
2018-10-17T11:50:16.442Z,19.25
2018-10-17T11:52:46.447Z,16.87
2018-10-17T11:55:14.134Z,16.35
2018-10-17T11:57:41.782Z,17.20
2018-10-17T12:00:11.210Z,17.67
2018-10-17T12:02:38.904Z,16.82
2018-10-17T12:05:09.232Z,19.27
2018-10-17T12:07:36.653Z,17.92
2018-10-17T12:10:05.066Z,19.27
2018-10-17T12:12:32.842Z,17.60
2018-10-17T12:15:00.653Z,19.40
2018-10-17T12:17:28.380Z,18.73
2018-10-17T12:19:56.202Z,20.52
2018-10-17T12:22:23.783Z,18.02
2018-10-17T12:24:51.442Z,18.87
2018-10-17T12:27:19.373Z,20.48
2018-10-17T12:29:47.167Z,19.12
2018-10-17T12:32:14.932Z,17.55
2018-10-17T12:34:42.836Z,20.10
2018-10-17T12:37:10.635Z,19.23
2018-10-17T12:39:38.398Z,19.37
2018-10-17T12:42:06.010Z,17.23
2018-10-17T12:44:33.787Z,17.90
2018-10-17T12:47:01.528Z,18.32
2018-10-17T12:49:29.192Z,19.82
2018-10-17T12:51:56.859Z,18.65
2018-10-17T12:54:25.033Z,16.60
2018-10-17T12:56:52.708Z,18.17
2018-10-17T12:59:20.602Z,15.63
2018-10-17T13:01:48.195Z,17.07
2018-10-17T13:04:15.887Z,18.60
2018-10-17T13:06:43.601Z,18.23
2018-10-17T13:09:12.083Z,18.05
2018-10-17T13:11:39.840Z,17.60
2018-10-17T13:14:07.726Z,18.35
2018-10-17T13:16:35.496Z,19.07
2018-10-17T13:19:03.335Z,18.77
2018-10-17T13:21:31.125Z,18.80
2018-10-17T13:23:59.304Z,17.60
2018-10-17T13:26:27.009Z,18.57
2018-10-17T13:28:54.687Z,20.08
2018-10-17T13:31:22.604Z,20.25
2018-10-17T13:33:50.263Z,20.52
2018-10-17T13:36:17.955Z,20.00
2018-10-17T13:38:45.598Z,18.87
2018-10-17T13:41:13.376Z,19.82
2018-10-17T13:43:41.046Z,17.57
2018-10-17T13:46:08.732Z,17.85
2018-10-17T13:48:36.441Z,20.85
2018-10-17T13:51:04.296Z,18.35
2018-10-17T13:53:31.949Z,20.95
2018-10-17T13:55:59.653Z,19.65
2018-10-17T13:58:29.922Z,24.05
2018-10-17T14:00:57.655Z,23.83
2018-10-17T14:03:25.329Z,23.35
2018-10-17T14:05:53.113Z,24.60
2018-10-17T14:08:20.793Z,21.10
2018-10-17T14:10:48.533Z,26.25
2018-10-17T14:13:16.315Z,22.05
2018-10-17T14:15:44.086Z,22.85
2018-10-17T14:18:11.874Z,23.22
2018-10-17T14:20:40.853Z,24.72
2018-10-17T14:23:09.618Z,23.25
2018-10-17T14:25:37.501Z,26.23
2018-10-17T14:28:05.490Z,25.37
2018-10-17T14:30:34.339Z,20.10
2018-10-17T14:33:02.519Z,20.55
2018-10-17T14:35:30.382Z,20.90
2018-10-17T14:37:58.227Z,21.17
2018-10-17T14:40:25.950Z,22.65
2018-10-17T14:42:53.729Z,19.65
2018-10-17T14:45:21.504Z,22.35
2018-10-17T14:47:49.226Z,22.40
2018-10-17T14:50:17.039Z,19.37
2018-10-17T14:52:44.888Z,20.52
2018-10-17T14:55:12.759Z,19.12
2018-10-17T14:57:40.636Z,17.85
2018-10-17T15:00:12.035Z,17.12
2018-10-17T15:02:40.388Z,17.25
2018-10-17T15:05:08.440Z,18.35
2018-10-17T15:07:36.133Z,18.23
2018-10-17T15:10:04.095Z,18.30
2018-10-17T15:12:31.838Z,18.10
2018-10-17T15:14:59.667Z,18.15
2018-10-17T15:17:27.775Z,18.92
2018-10-17T15:19:55.578Z,19.90
2018-10-17T15:22:23.371Z,19.15
2018-10-17T15:24:51.122Z,22.87
2018-10-17T15:27:19.093Z,21.48
2018-10-17T15:29:46.908Z,19.67
2018-10-17T15:32:14.633Z,22.40
2018-10-17T15:34:42.580Z,22.32
2018-10-17T15:37:10.477Z,23.10
2018-10-17T15:39:38.268Z,23.80
2018-10-17T15:42:06.001Z,19.87
2018-10-17T15:44:33.731Z,21.25
2018-10-17T15:47:01.523Z,20.70
2018-10-17T15:49:29.621Z,24.90
2018-10-17T15:51:57.809Z,26.82
2018-10-17T15:54:26.643Z,30.52
2018-10-17T15:56:54.855Z,31.42
2018-10-17T15:59:22.695Z,32.42
2018-10-17T16:01:50.484Z,34.48
2018-10-17T16:04:18.097Z,36.38
2018-10-17T16:06:46.279Z,35.85
2018-10-17T16:09:14.068Z,35.90
2018-10-17T16:11:41.924Z,37.88
2018-10-17T16:14:10.009Z,40.05
2018-10-17T16:16:37.936Z,37.30
2018-10-17T16:19:05.689Z,38.58
2018-10-17T16:21:33.483Z,36.03
2018-10-17T16:24:01.437Z,39.25
2018-10-17T16:26:29.204Z,38.00
2018-10-17T16:28:57.068Z,39.33
2018-10-17T16:31:24.770Z,38.70
2018-10-17T16:33:52.670Z,38.10
2018-10-17T16:36:20.750Z,40.58
2018-10-17T16:38:48.453Z,40.90
2018-10-17T16:41:16.255Z,40.63
2018-10-17T16:43:43.958Z,40.57
2018-10-17T16:46:11.732Z,38.63
2018-10-17T16:48:40.204Z,39.00
2018-10-17T16:51:07.952Z,41.20
2018-10-17T16:53:36.263Z,39.97
2018-10-17T16:56:04.284Z,40.23
2018-10-17T16:58:32.483Z,37.33
2018-10-17T17:01:00.235Z,40.83
2018-10-17T17:03:28.062Z,35.43
2018-10-17T17:05:55.878Z,38.40
2018-10-17T17:08:24.576Z,37.93
2018-10-17T17:10:52.371Z,37.93
2018-10-17T17:13:21.960Z,35.10
2018-10-17T17:15:49.859Z,35.03
2018-10-17T17:18:17.637Z,35.37
2018-10-17T17:20:45.373Z,35.37
2018-10-17T17:23:14.006Z,35.30
2018-10-17T17:25:42.068Z,38.43
2018-10-17T17:28:09.796Z,32.37
2018-10-17T17:30:37.856Z,32.23
2018-10-17T17:33:06.325Z,35.63
2018-10-17T17:35:34.059Z,35.17
2018-10-17T17:38:01.780Z,35.63
2018-10-17T17:40:29.575Z,34.77
2018-10-17T17:42:57.329Z,33.63
2018-10-17T17:45:25.073Z,36.03
2018-10-17T17:47:53.188Z,35.07
2018-10-17T17:50:21.210Z,35.83
2018-10-17T17:52:49.915Z,35.47
2018-10-17T17:55:20.990Z,35.60
2018-10-17T17:57:49.354Z,35.60
2018-10-17T18:00:17.419Z,33.67
2018-10-17T18:02:45.401Z,38.13
2018-10-17T18:05:13.593Z,34.93
2018-10-17T18:07:41.499Z,37.07
2018-10-17T18:10:09.702Z,39.57
2018-10-17T18:12:37.712Z,35.87
2018-10-17T18:15:06.401Z,40.33
2018-10-17T18:17:34.407Z,36.60
2018-10-17T18:20:02.817Z,39.90
2018-10-17T18:22:30.819Z,36.73
2018-10-17T18:24:58.536Z,37.67
2018-10-17T18:27:26.398Z,38.87
2018-10-17T18:29:54.153Z,38.17
2018-10-17T18:32:21.837Z,40.70
2018-10-17T18:34:49.590Z,39.57
2018-10-17T18:37:17.369Z,34.77
2018-10-17T18:39:45.205Z,39.83
2018-10-17T18:42:13.362Z,38.50
2018-10-17T18:44:41.077Z,42.17
2018-10-17T18:47:09.741Z,38.20
2018-10-17T18:49:37.509Z,36.10
2018-10-17T18:52:05.575Z,39.37
2018-10-17T18:54:33.241Z,42.37
2018-10-17T18:57:00.923Z,44.30
2018-10-17T18:59:28.923Z,40.17
2018-10-17T19:01:56.622Z,42.37
2018-10-17T19:04:24.297Z,42.60
2018-10-17T19:06:52.044Z,41.27
2018-10-17T19:09:19.696Z,43.63
2018-10-17T19:11:47.391Z,41.40
2018-10-17T19:14:15.045Z,39.20
2018-10-17T19:16:42.762Z,41.03
2018-10-17T19:19:10.680Z,38.70
2018-10-17T19:21:40.634Z,39.47
2018-10-17T19:24:08.362Z,41.57
2018-10-17T19:26:36.187Z,44.10
2018-10-17T19:29:04.219Z,41.30
2018-10-17T19:31:32.045Z,43.17
2018-10-17T19:34:00.133Z,45.53
2018-10-17T19:36:27.948Z,41.53
2018-10-17T19:38:57.551Z,44.67
2018-10-17T19:41:25.387Z,41.77
2018-10-17T19:43:53.228Z,45.30
2018-10-17T19:46:20.987Z,41.27
2018-10-17T19:48:49.029Z,41.93
2018-10-17T19:51:16.836Z,42.60
2018-10-17T19:53:44.537Z,43.77
2018-10-17T19:56:13.184Z,42.20
2018-10-17T19:58:41.425Z,41.53
2018-10-17T20:01:09.105Z,43.27
2018-10-17T20:03:36.791Z,45.93
2018-10-17T20:06:04.646Z,45.20
2018-10-17T20:08:32.336Z,42.80
2018-10-17T20:11:00.019Z,44.20
2018-10-17T20:13:27.712Z,43.83
2018-10-17T20:15:55.473Z,49.23
2018-10-17T20:18:23.625Z,45.30
2018-10-17T20:20:51.307Z,43.00
2018-10-17T20:23:19.846Z,43.10
2018-10-17T20:25:47.575Z,42.57
2018-10-17T20:28:18.027Z,48.97
2018-10-17T20:30:45.844Z,44.77
2018-10-17T20:33:13.782Z,46.47
2018-10-17T20:35:41.474Z,47.23
2018-10-17T20:38:09.108Z,47.57
2018-10-17T20:40:37.865Z,45.63
2018-10-17T20:43:05.609Z,46.67
2018-10-17T20:45:33.405Z,50.10
2018-10-17T20:48:01.478Z,45.80
2018-10-17T20:50:29.204Z,49.63
2018-10-17T20:52:56.975Z,47.17
2018-10-17T20:55:24.687Z,51.27
2018-10-17T20:57:52.371Z,50.47
2018-10-17T21:00:20.013Z,52.50
2018-10-17T21:02:47.757Z,49.90
2018-10-17T21:05:15.459Z,52.20
2018-10-17T21:07:43.169Z,50.47
2018-10-17T21:10:10.883Z,50.43
2018-10-17T21:12:38.516Z,52.40
2018-10-17T21:15:07.035Z,54.90
2018-10-17T21:17:34.672Z,51.70
2018-10-17T21:20:02.363Z,52.73
2018-10-17T21:22:30.038Z,50.40
2018-10-17T21:24:57.721Z,53.67
2018-10-17T21:27:25.366Z,54.23
2018-10-17T21:29:53.055Z,50.70
2018-10-17T21:32:22.021Z,52.20
2018-10-17T21:34:49.693Z,52.63
2018-10-17T21:37:17.342Z,54.37
2018-10-17T21:39:45.046Z,53.57
2018-10-17T21:42:12.704Z,53.60
2018-10-17T21:44:40.342Z,51.80
2018-10-17T21:47:08.060Z,51.87
2018-10-17T21:49:35.714Z,53.20
2018-10-17T21:52:03.530Z,51.33
2018-10-17T21:54:31.177Z,47.73
2018-10-17T21:56:58.836Z,45.00
2018-10-17T21:59:26.584Z,46.37
2018-10-17T22:01:54.325Z,49.40
2018-10-17T22:04:22.004Z,46.37
2018-10-17T22:06:49.753Z,46.70
2018-10-17T22:09:17.419Z,43.30
2018-10-17T22:11:45.090Z,44.40
2018-10-17T22:14:13.470Z,44.40
2018-10-17T22:16:46.669Z,45.80
2018-10-17T22:19:14.477Z,41.67
2018-10-17T22:21:42.075Z,44.17
2018-10-17T22:24:09.774Z,40.93
2018-10-17T22:26:37.489Z,41.20
2018-10-17T22:29:05.271Z,40.73
2018-10-17T22:31:32.996Z,43.30
2018-10-17T22:34:00.631Z,43.00
2018-10-17T22:36:28.292Z,44.70
2018-10-17T22:38:55.951Z,43.53
2018-10-17T22:41:23.713Z,39.90
2018-10-17T22:43:51.445Z,41.03
2018-10-17T22:46:19.194Z,41.60
2018-10-17T22:48:46.914Z,40.77
2018-10-17T22:51:14.632Z,38.90
2018-10-17T22:53:42.285Z,40.03
2018-10-17T22:56:10.028Z,41.90
2018-10-17T22:58:37.654Z,39.90
2018-10-17T23:01:05.923Z,42.13
2018-10-17T23:03:33.501Z,41.00
2018-10-17T23:06:01.085Z,41.00
2018-10-17T23:08:28.758Z,39.67
2018-10-17T23:10:56.460Z,40.80
2018-10-17T23:13:24.105Z,39.13
2018-10-17T23:15:51.864Z,34.37
2018-10-17T23:18:19.533Z,38.50
2018-10-17T23:20:47.174Z,40.53
2018-10-17T23:23:14.911Z,37.87
2018-10-17T23:25:42.637Z,38.40
2018-10-17T23:28:10.323Z,40.77
2018-10-17T23:30:37.886Z,38.97
2018-10-17T23:33:05.575Z,40.37
2018-10-17T23:35:33.242Z,40.00
2018-10-17T23:38:00.945Z,38.27
2018-10-17T23:40:28.582Z,37.63
2018-10-17T23:42:56.256Z,38.10
2018-10-17T23:45:23.906Z,39.33
2018-10-17T23:47:51.635Z,40.50
2018-10-17T23:50:19.230Z,40.50
2018-10-17T23:52:46.900Z,39.33
2018-10-17T23:55:14.582Z,38.97
2018-10-17T23:57:42.288Z,37.03
